Time;durP1;ratioP1;P1;durP2;ratioP2;P2;SDS_P1;SDS_P2;PMS_P1;PMS_P2;Temp;Humidity;BMP_temperature;BMP_pressure;BME280_temperature;BME280_humidity;BME280_pressure;Samples;Min_cycle;Max_cycle;Signal;HPM_P1;HPM_P2
2022/11/26 00:01:41;;;;;;;8.52;7.28;;;;;;;9.24;49.34;100064.22;5051826;28;20104;-79
2022/11/26 00:04:08;;;;;;;9.40;7.28;;;;;;;9.04;49.65;100049.59;5052348;28;20036;-80
2022/11/26 00:06:40;;;;;;;8.43;7.50;;;;;;;9.19;49.36;100074.38;5051212;28;20029;-79
2022/11/26 00:09:10;;;;;;;;;;;;;;;8.97;49.79;100076.72;5050279;28;20049;-79
2022/11/26 00:11:36;;;;;;;10.23;7.60;;;;;;;8.54;49.95;100013.38;5033641;28;19991;-79
2022/11/26 00:14:01;;;;;;;8.75;7.43;;;;;;;8.56;49.96;100024.56;5051575;28;20158;-79
2022/11/26 00:16:29;;;;;;;11.25;8.48;;;;;;;8.61;50.03;100042.53;5033639;28;20100;-79
2022/11/26 00:18:54;;;;;;;8.50;7.55;;;;;;;8.62;50.23;100030.22;5050178;28;20128;-79
2022/11/26 00:21:23;;;;;;;9.52;8.15;;;;;;;8.24;49.83;99988.28;5033556;28;20035;-79
2022/11/26 00:23:50;;;;;;;9.50;8.43;;;;;;;8.26;50.23;99988.97;5051362;28;20052;-79
2022/11/26 00:26:18;;;;;;;11.23;9.18;;;;;;;8.23;50.24;99976.13;5049949;28;20028;-79
2022/11/26 00:28:49;;;;;;;12.38;10.15;;;;;;;8.92;50.33;100087.72;5051162;28;20028;-79
2022/11/26 00:31:15;;;;;;;11.35;10.23;;;;;;;7.58;50.14;99867.75;5051164;28;20435;-79
2022/11/26 00:33:41;;;;;;;10.43;9.32;;;;;;;8.88;50.17;100084.53;5051057;28;20021;-79
2022/11/26 00:36:23;;;;;;;9.93;8.60;;;;;;;8.35;50.61;100010.09;5051157;28;20524;-79
2022/11/26 00:38:53;;;;;;;9.63;8.63;;;;;;;8.62;50.45;100069.69;5049865;28;20025;-79
2022/11/26 00:41:22;;;;;;;10.45;8.95;;;;;;;8.73;50.71;100091.34;5051186;28;20043;-79
2022/11/26 00:43:48;;;;;;;19.70;15.07;;;;;;;7.94;50.80;99976.31;5051205;28;20021;-79
2022/11/26 00:46:19;;;;;;;17.63;13.30;;;;;;;8.28;51.14;100033.53;5051129;28;20090;-80
2022/11/26 00:48:45;;;;;;;12.73;10.13;;;;;;;8.24;50.84;100034.81;5033038;28;20477;-79
2022/11/26 00:51:17;;;;;;;12.60;9.57;;;;;;;8.00;50.97;99982.78;5053224;28;20048;-80
2022/11/26 00:53:44;;;;;;;10.48;7.93;;;;;;;8.73;50.58;100093.97;5061641;28;20036;-80
2022/11/26 00:56:17;;;;;;;12.40;9.27;;;;;;;8.71;50.87;100108.25;5075481;28;20033;-79
2022/11/26 00:58:43;;;;;;;9.57;8.02;;;;;;;8.17;51.04;100016.13;5053722;28;20494;-79
2022/11/26 01:01:11;;;;;;;8.73;7.18;;;;;;;8.76;50.74;100117.34;5033087;28;20025;-79
2022/11/26 01:03:41;;;;;;;8.57;7.03;;;;;;;8.55;50.86;100075.56;5051008;28;20032;-79
2022/11/26 01:06:14;;;;;;;10.27;7.75;;;;;;;8.10;50.67;100020.34;5049796;28;20472;-79
2022/11/26 01:08:40;;;;;;;9.95;7.35;;;;;;;7.82;50.91;99972.28;5050900;28;20049;-79
2022/11/26 01:11:06;;;;;;;8.05;7.25;;;;;;;8.06;50.84;99995.34;5051004;28;20575;-79
2022/11/26 01:13:31;;;;;;;12.45;7.30;;;;;;;8.22;51.08;100013.09;5050772;28;20025;-79
2022/11/26 01:15:59;;;;;;;7.85;7.05;;;;;;;8.76;51.00;100108.63;5050868;28;20029;-79
2022/11/26 01:18:25;;;;;;;8.65;7.47;;;;;;;8.77;50.90;100119.00;5051242;28;20025;-79
2022/11/26 01:20:50;;;;;;;7.95;7.10;;;;;;;8.79;51.12;100109.16;5054985;28;20021;-79
2022/11/26 01:23:18;;;;;;;9.02;7.00;;;;;;;8.54;50.79;100067.81;5054845;28;20112;-80
2022/11/26 01:25:45;;;;;;;8.02;6.25;;;;;;;8.85;50.85;100111.16;5054692;28;20028;-79
2022/11/26 01:28:13;;;;;;;7.60;6.90;;;;;;;8.64;51.03;100073.81;5036678;28;20116;-80
2022/11/26 01:30:39;;;;;;;8.43;7.53;;;;;;;8.51;50.84;100089.19;5054588;28;20031;-79
2022/11/26 01:33:05;;;;;;;8.00;6.68;;;;;;;8.15;50.90;100009.38;5054641;28;20036;-79
2022/11/26 01:35:30;;;;;;;8.43;6.90;;;;;;;8.12;51.42;100035.97;5037103;28;20067;-79
2022/11/26 01:37:56;;;;;;;9.25;7.60;;;;;;;8.76;50.87;100124.44;5055460;28;20029;-79
2022/11/26 01:40:24;;;;;;;8.95;7.25;;;;;;;8.87;50.67;100119.75;5036681;28;20043;-79
2022/11/26 01:43:05;;;;;;;8.93;7.53;;;;;;;8.89;50.55;100123.06;5036487;28;20025;-80
2022/11/26 01:45:30;;;;;;;10.48;7.88;;;;;;;8.37;50.60;100044.97;5036557;28;20108;-79
2022/11/26 01:47:56;;;;;;;7.80;7.10;;;;;;;8.92;50.88;100140.38;5054431;28;20049;-79
2022/11/26 01:50:27;;;;;;;9.18;7.75;;;;;;;8.92;51.01;100111.41;5054602;28;20036;-80
2022/11/26 01:52:55;;;;;;;10.45;8.90;;;;;;;8.76;50.93;100120.00;5054207;28;20505;-79
2022/11/26 01:55:21;;;;;;;9.63;8.63;;;;;;;8.39;51.20;100051.75;5052919;28;20486;-79
2022/11/26 01:57:47;;;;;;;10.18;7.47;;;;;;;8.02;51.19;99996.59;5054190;28;20049;-79
2022/11/26 02:00:13;;;;;;;9.35;7.18;;;;;;;8.55;51.31;100090.53;5036243;28;20528;-79
2022/11/26 02:02:40;;;;;;;11.15;7.75;;;;;;;8.23;51.22;100033.97;5053855;28;20021;-79
2022/11/26 02:05:17;;;;;;;10.50;7.90;;;;;;;8.14;51.09;100037.47;5052453;28;20516;-79
2022/11/26 02:07:43;;;;;;;9.27;8.20;;;;;;;8.78;51.20;100127.72;5053914;28;20028;-79
2022/11/26 02:10:09;;;;;;;9.77;7.63;;;;;;;8.36;51.41;100057.31;5053915;28;20028;-79
2022/11/26 02:12:35;;;;;;;11.90;10.65;;;;;;;8.26;51.42;100056.53;5053991;28;20413;-79
2022/11/26 02:15:01;;;;;;;13.35;10.10;;;;;;;8.23;51.30;100057.66;5053779;28;20029;-79
2022/11/26 02:17:30;;;;;;;10.05;7.97;;;;;;;8.60;51.54;100127.75;5053557;28;20039;-79
2022/11/26 02:20:09;;;;;;;11.80;9.18;;;;;;;8.37;51.54;100119.47;5053644;28;20455;-79
2022/11/26 02:22:34;;;;;;;12.23;8.88;;;;;;;8.57;51.80;100122.78;5052296;28;20028;-79
2022/11/26 02:25:26;;;;;;;9.38;8.43;;;;;;;8.60;51.37;100125.94;5053555;28;20521;-79
2022/11/26 02:28:07;;;;;;;9.88;8.82;;;;;;;8.61;51.33;100126.78;5035577;28;20029;-80
2022/11/26 02:30:44;;;;;;;11.77;9.00;;;;;;;7.99;51.42;100033.72;5052315;28;20506;-79
2022/11/26 02:33:32;;;;;;;11.70;8.27;;;;;;;7.97;51.39;100046.19;5053343;28;20037;-79
2022/11/26 02:36:06;;;;;;;11.77;8.75;;;;;;;8.02;51.85;100064.97;5053492;28;20021;-79
2022/11/26 02:38:36;;;;;;;10.77;8.95;;;;;;;8.47;51.58;100153.63;5052488;28;20086;-79
2022/11/26 02:41:01;;;;;;;9.00;8.10;;;;;;;8.08;52.15;100103.84;5052094;28;20044;-79
2022/11/26 02:43:27;;;;;;;10.02;8.70;;;;;;;8.33;52.09;100154.09;5053215;28;20486;-80
2022/11/26 02:45:57;;;;;;;8.80;7.90;;;;;;;7.86;52.10;100097.19;5053382;28;20056;-79
2022/11/26 02:48:30;;;;;;;9.50;8.50;;;;;;;8.02;52.06;100135.16;5051699;28;20020;-80
2022/11/26 02:51:00;;;;;;;9.10;7.80;;;;;;;8.00;52.42;100122.16;5052973;28;20512;-79
2022/11/26 02:53:30;;;;;;;9.07;8.10;;;;;;;7.92;52.38;100103.66;5052872;28;20025;-79
2022/11/26 02:56:07;;;;;;;10.52;8.50;;;;;;;8.18;52.32;100159.88;5052930;28;20051;-79
2022/11/26 02:58:33;;;;;;;11.77;9.20;;;;;;;8.25;52.24;100176.72;5052952;28;20082;-79
2022/11/26 03:01:03;;;;;;;10.68;8.50;;;;;;;7.40;52.08;100032.38;5052945;28;20025;-79
2022/11/26 03:03:33;;;;;;;10.75;8.88;;;;;;;7.28;52.53;100034.38;5051440;28;20032;-79
2022/11/26 03:06:08;;;;;;;20.30;13.45;;;;;;;8.26;52.33;100164.38;5052798;28;20021;-80
2022/11/26 03:08:33;;;;;;;14.98;11.75;;;;;;;7.88;52.41;100116.25;5052667;28;20056;-79
2022/11/26 03:10:59;;;;;;;12.48;10.05;;;;;;;8.02;52.42;100191.19;5052807;28;20039;-79
2022/11/26 03:13:24;;;;;;;13.00;10.68;;;;;;;7.57;52.28;100071.06;5052714;28;20016;-80
2022/11/26 03:15:50;;;;;;;13.05;10.23;;;;;;;7.51;52.55;100063.75;5052701;28;20032;-79
2022/11/26 03:18:15;;;;;;;12.05;10.27;;;;;;;8.19;52.67;100176.47;5052347;28;20027;-79
2022/11/26 03:20:41;;;;;;;13.68;10.80;;;;;;;7.80;52.23;100124.06;5052287;28;20067;-80
2022/11/26 03:23:06;;;;;;;12.75;10.65;;;;;;;7.83;52.20;100131.66;5052206;28;20070;-80
2022/11/26 03:25:33;;;;;;;11.80;10.55;;;;;;;7.92;52.67;100127.31;5052300;28;20497;-80
2022/11/26 03:27:58;;;;;;;14.25;10.82;;;;;;;7.76;52.66;100104.28;5034427;28;20028;-79
2022/11/26 03:30:24;;;;;;;12.50;10.38;;;;;;;7.91;52.69;100136.19;5052349;28;20029;-79
2022/11/26 03:32:49;;;;;;;11.45;9.98;;;;;;;7.42;52.92;100061.97;5052254;28;20021;-79
2022/11/26 03:35:15;;;;;;;12.73;10.93;;;;;;;8.20;52.77;100178.97;5052235;28;20021;-79
2022/11/26 03:37:40;;;;;;;17.10;11.52;;;;;;;8.02;52.58;100153.56;5051992;28;20101;-80
2022/11/26 03:40:07;;;;;;;14.05;11.07;;;;;;;7.99;52.70;100170.47;5051931;28;20412;-79
2022/11/26 03:42:32;;;;;;;16.08;10.18;;;;;;;7.76;52.78;100156.88;5051713;28;20507;-79
2022/11/26 03:44:58;;;;;;;15.43;10.73;;;;;;;7.69;52.77;100129.50;5051822;28;20099;-79
2022/11/26 03:47:23;;;;;;;12.85;10.55;;;;;;;7.48;52.89;100108.72;5059513;28;20024;-80
2022/11/26 03:49:49;;;;;;;17.73;12.63;;;;;;;8.08;52.77;100197.69;5051307;28;20021;-79
2022/11/26 03:52:14;;;;;;;23.92;16.38;;;;;;;8.05;53.07;100217.22;5052384;28;20025;-79
2022/11/26 03:54:40;;;;;;;20.23;14.02;;;;;;;6.89;53.30;100017.13;5053080;28;20107;-79
2022/11/26 03:57:05;;;;;;;16.58;11.68;;;;;;;7.96;53.56;100204.94;5051707;28;20078;-79
2022/11/26 03:59:31;;;;;;;15.52;11.55;;;;;;;7.20;52.87;100092.06;5051607;28;20092;-79
2022/11/26 04:01:56;;;;;;;13.82;11.07;;;;;;;7.58;53.77;100179.63;5051435;28;20025;-79
2022/11/26 04:04:21;;;;;;;14.38;11.07;;;;;;;7.64;53.39;100177.25;5051573;28;20025;-79
2022/11/26 04:06:47;;;;;;;16.02;10.43;;;;;;;7.03;53.40;100091.97;5051648;28;20418;-80
2022/11/26 04:09:12;;;;;;;14.70;11.60;;;;;;;7.41;53.49;100164.56;5051481;28;20049;-79
2022/11/26 04:11:38;;;;;;;15.98;11.25;;;;;;;7.24;53.46;100137.25;5033823;28;20017;-79
2022/11/26 04:14:03;;;;;;;15.50;11.07;;;;;;;7.66;53.78;100221.78;5051444;28;20025;-79
2022/11/26 04:16:29;;;;;;;15.85;12.65;;;;;;;6.92;53.71;100083.28;5051804;28;20028;-79
2022/11/26 04:18:54;;;;;;;20.40;12.90;;;;;;;7.79;53.56;100226.72;5034090;28;20410;-80
2022/11/26 04:21:20;;;;;;;20.30;13.85;;;;;;;7.23;53.38;100170.56;5051408;28;20075;-79
2022/11/26 04:23:45;;;;;;;17.40;12.25;;;;;;;6.72;53.57;100068.53;5033959;28;20012;-79
2022/11/26 04:26:11;;;;;;;18.20;11.43;;;;;;;7.36;53.89;100200.94;5051744;28;20025;-79
2022/11/26 04:28:36;;;;;;;11.38;9.60;;;;;;;6.91;53.61;100120.16;5052571;28;20025;-79
2022/11/26 04:31:02;;;;;;;15.45;9.45;;;;;;;6.31;54.01;100004.91;5051838;28;20021;-79
2022/11/26 04:33:27;;;;;;;15.82;12.13;;;;;;;7.27;53.49;100176.34;5033387;28;20017;-79
2022/11/26 04:35:53;;;;;;;17.90;12.93;;;;;;;7.47;53.74;100201.63;5051359;28;20040;-79
2022/11/26 04:38:19;;;;;;;17.48;13.75;;;;;;;7.28;53.32;100160.44;5033332;28;20053;-79
2022/11/26 04:40:44;;;;;;;14.93;12.68;;;;;;;7.61;53.25;100231.91;5033306;28;20073;-79
2022/11/26 04:43:10;;;;;;;16.20;12.85;;;;;;;7.50;53.41;100195.28;5051350;28;20028;-79
2022/11/26 04:45:35;;;;;;;17.63;12.80;;;;;;;5.97;53.02;99967.81;5051628;28;20029;-79
2022/11/26 04:48:00;;;;;;;18.95;14.07;;;;;;;7.10;53.14;100153.44;5051388;28;20024;-79
2022/11/26 04:50:26;;;;;;;18.95;14.90;;;;;;;7.70;53.15;100253.88;5051518;28;20540;-79
2022/11/26 04:52:51;;;;;;;26.38;20.30;;;;;;;6.91;53.01;100121.00;5033457;28;20028;-79
2022/11/26 04:55:17;;;;;;;25.15;20.77;;;;;;;7.06;52.99;100149.44;5055089;28;20024;-79
2022/11/26 04:57:43;;;;;;;21.13;15.82;;;;;;;6.74;53.22;100113.84;5055491;28;20095;-79
2022/11/26 05:00:10;;;;;;;16.65;14.32;;;;;;;7.23;53.43;100238.00;5055200;28;20026;-79
2022/11/26 05:02:35;;;;;;;19.77;16.17;;;;;;;7.48;53.60;100263.72;5055277;28;20082;-79
2022/11/26 05:05:01;;;;;;;20.17;15.73;;;;;;;7.12;53.15;100217.97;5055130;28;20059;-79
2022/11/26 05:07:26;;;;;;;12.55;11.18;;;;;;;6.69;53.53;100153.63;5055352;28;20159;-79
2022/11/26 05:09:52;;;;;;;16.63;11.32;;;;;;;6.38;52.80;100107.47;5054764;28;20106;-79
2022/11/26 05:12:17;;;;;;;12.95;10.65;;;;;;;7.09;53.48;100246.31;5055107;28;20092;-79
2022/11/26 05:14:42;;;;;;;15.93;12.00;;;;;;;6.89;53.21;100200.84;5055103;28;20379;-80
2022/11/26 05:17:08;;;;;;;16.13;11.43;;;;;;;6.46;52.78;100138.25;5037117;28;20024;-79
2022/11/26 05:19:33;;;;;;;14.55;11.73;;;;;;;6.61;53.35;100176.22;5054966;28;20021;-79
2022/11/26 05:21:59;;;;;;;14.20;12.10;;;;;;;6.47;53.45;100197.63;5054783;28;20104;-79
2022/11/26 05:24:24;;;;;;;18.35;14.23;;;;;;;6.77;53.72;100243.94;5037448;28;20174;-79
2022/11/26 05:26:50;;;;;;;21.05;15.73;;;;;;;6.32;53.07;100168.31;5054806;28;20056;-79
2022/11/26 05:29:15;;;;;;;17.95;14.60;;;;;;;6.98;53.63;100294.53;5054823;28;20162;-79
2022/11/26 05:31:40;;;;;;;16.75;14.18;;;;;;;6.84;53.89;100282.63;5054638;28;20167;-79
2022/11/26 05:34:06;;;;;;;21.38;15.55;;;;;;;6.44;53.49;100229.38;5054464;28;20077;-79
2022/11/26 05:36:31;;;;;;;25.90;19.98;;;;;;;6.15;53.51;100205.69;5054667;28;20021;-79
2022/11/26 05:38:57;;;;;;;26.05;20.75;;;;;;;5.22;53.51;100038.19;5054486;28;20032;-79
2022/11/26 05:41:22;;;;;;;45.17;32.22;;;;;;;6.68;53.68;100258.69;5054248;28;20029;-80
2022/11/26 05:43:47;;;;;;;41.53;29.95;;;;;;;6.42;53.32;100223.44;5054257;28;20029;-79
2022/11/26 05:46:15;;;;;;;42.08;30.60;;;;;;;6.82;52.98;100299.50;5036825;28;20463;-79
2022/11/26 05:48:40;;;;;;;32.90;23.40;;;;;;;7.05;53.01;100321.91;5054528;28;20063;-79
2022/11/26 05:51:06;;;;;;;28.45;22.63;;;;;;;6.37;52.78;100210.72;5054496;28;20053;-80
2022/11/26 05:53:31;;;;;;;28.20;22.77;;;;;;;6.60;52.67;100246.25;5054146;28;20432;-79
2022/11/26 05:55:57;;;;;;;25.05;19.48;;;;;;;6.35;52.76;100208.22;5054111;28;20024;-80
2022/11/26 05:58:22;;;;;;;25.05;17.98;;;;;;;6.43;52.81;100214.59;5036187;28;20032;-79
2022/11/26 06:00:48;;;;;;;21.88;19.02;;;;;;;6.39;52.79;100203.53;5054138;28;20563;-79
2022/11/26 06:03:13;;;;;;;22.00;18.02;;;;;;;6.23;52.55;100177.84;5053882;28;20417;-79
2022/11/26 06:05:38;;;;;;;24.50;18.88;;;;;;;6.25;52.89;100182.94;5053952;28;20104;-79
2022/11/26 06:08:04;;;;;;;26.20;19.88;;;;;;;7.15;52.82;100329.78;5053843;28;20128;-79
2022/11/26 06:10:29;;;;;;;21.95;18.42;;;;;;;6.50;53.29;100220.97;5036584;28;20405;-79
2022/11/26 06:12:55;;;;;;;24.63;19.50;;;;;;;6.68;52.60;100249.00;5036016;28;20048;-79
2022/11/26 06:15:21;;;;;;;28.75;20.23;;;;;;;7.05;52.78;100306.16;5060559;28;20049;-78
2022/11/26 06:17:47;;;;;;;27.77;19.90;;;;;;;7.27;52.52;100352.34;5046914;28;20031;-79
2022/11/26 06:20:12;;;;;;;25.30;20.20;;;;;;;6.63;53.16;100250.38;5053720;28;20028;-79
2022/11/26 06:22:39;;;;;;;27.75;20.88;;;;;;;7.07;52.91;100321.75;5053670;28;20032;-79
2022/11/26 06:25:12;;;;;;;26.25;19.58;;;;;;;7.15;52.58;100320.13;5053579;28;20046;-79
2022/11/26 06:27:38;;;;;;;28.60;20.85;;;;;;;6.81;52.79;100261.91;5035555;28;20039;-79
2022/11/26 06:30:05;;;;;;;30.65;20.88;;;;;;;7.27;52.43;100342.66;5053321;28;20464;-79
2022/11/26 06:32:31;;;;;;;30.65;22.75;;;;;;;6.59;52.93;100214.91;5052176;28;20024;-79
2022/11/26 06:34:57;;;;;;;30.63;23.67;;;;;;;7.19;52.48;100324.13;5052403;28;20029;-79
2022/11/26 06:37:23;;;;;;;32.88;25.67;;;;;;;7.58;52.21;100368.81;5061016;28;20539;-80
2022/11/26 06:39:49;;;;;;;35.28;26.77;;;;;;;7.48;52.66;100334.66;5061769;28;20091;-79
2022/11/26 06:42:14;;;;;;;39.78;28.13;;;;;;;7.03;52.30;100260.00;5053104;28;20033;-79
2022/11/26 06:44:40;;;;;;;39.30;27.88;;;;;;;7.45;52.42;100337.56;5053498;28;20032;-79
2022/11/26 06:47:09;;;;;;;36.28;25.20;;;;;;;7.16;52.49;100265.78;5053486;28;20409;-79
2022/11/26 06:49:34;;;;;;;33.25;23.60;;;;;;;7.34;52.72;100301.72;5053325;28;20020;-79
2022/11/26 06:52:00;;;;;;;30.40;22.65;;;;;;;7.20;52.59;100301.31;5035236;28;20110;-79
2022/11/26 06:54:25;;;;;;;28.38;22.42;;;;;;;7.47;52.00;100312.00;5052912;28;20471;-79
2022/11/26 06:56:51;;;;;;;25.98;18.73;;;;;;;7.41;52.31;100282.78;5035159;28;20024;-79
2022/11/26 06:59:16;;;;;;;27.88;18.33;;;;;;;7.71;52.45;100329.94;5035103;28;20482;-80
2022/11/26 07:01:41;;;;;;;25.35;18.73;;;;;;;7.78;52.40;100333.69;5035261;28;20083;-80
2022/11/26 07:04:09;;;;;;;23.35;18.27;;;;;;;7.97;52.26;100367.00;5035482;28;20086;-80
2022/11/26 07:06:34;;;;;;;18.48;14.10;;;;;;;7.93;52.20;100400.63;5053200;28;20509;-79
2022/11/26 07:09:07;;;;;;;19.85;14.85;;;;;;;7.11;52.15;100232.06;5052979;28;20056;-79
2022/11/26 07:11:35;;;;;;;21.25;16.05;;;;;;;8.16;51.96;100388.00;5052981;28;20041;-79
2022/11/26 07:14:01;;;;;;;21.25;15.93;;;;;;;8.23;52.23;100397.00;5053016;28;20028;-79
2022/11/26 07:16:27;;;;;;;25.08;18.48;;;;;;;7.70;51.84;100302.00;5052288;28;20524;-80
2022/11/26 07:18:54;;;;;;;24.58;18.52;;;;;;;7.80;51.76;100308.06;5053523;28;20032;-79
2022/11/26 07:21:21;;;;;;;25.35;17.67;;;;;;;8.13;52.02;100364.59;5034889;28;20036;-79
2022/11/26 07:23:47;;;;;;;22.77;17.60;;;;;;;7.43;51.73;100228.31;5052471;28;20078;-79
2022/11/26 07:26:13;;;;;;;27.73;19.90;;;;;;;8.42;51.71;100390.06;5052261;28;20416;-79
2022/11/26 07:28:40;;;;;;;23.63;17.58;;;;;;;8.22;51.80;100363.78;5035221;28;20490;-79
2022/11/26 07:31:08;;;;;;;21.20;17.30;;;;;;;8.07;51.48;100325.72;5052577;28;20050;-79
2022/11/26 07:33:34;;;;;;;21.75;17.85;;;;;;;7.49;51.44;100219.88;5052128;28;20413;-80
2022/11/26 07:36:05;;;;;;;21.60;17.80;;;;;;;8.62;51.79;100396.09;5051892;28;20032;-79
2022/11/26 07:38:30;;;;;;;20.97;17.13;;;;;;;8.00;51.38;100289.63;5050990;28;20479;-79
2022/11/26 07:41:07;;;;;;;19.15;14.20;;;;;;;8.70;51.37;100390.94;5052331;28;20100;-80
2022/11/26 07:43:35;;;;;;;19.40;15.40;;;;;;;8.77;51.47;100398.09;5051933;28;20087;-79
2022/11/26 07:46:02;;;;;;;19.88;15.82;;;;;;;8.10;51.30;100269.38;5034117;28;20031;-79
2022/11/26 07:48:28;;;;;;;18.17;13.68;;;;;;;8.27;51.08;100295.78;5052094;28;20040;-79
2022/11/26 07:50:54;;;;;;;17.35;13.63;;;;;;;8.89;51.07;100372.41;5052009;28;20083;-79
2022/11/26 07:53:19;;;;;;;17.23;12.73;;;;;;;8.72;50.91;100350.31;5051763;28;20060;-79
2022/11/26 07:55:45;;;;;;;16.40;11.98;;;;;;;8.74;50.59;100334.38;5051929;28;20107;-79
2022/11/26 07:58:10;;;;;;;8.30;6.95;;;;;;;8.52;50.42;100293.47;5051908;28;20100;-79
2022/11/26 08:00:35;;;;;;;7.43;5.30;;;;;;;8.51;50.10;100276.03;5034179;28;20131;-79
2022/11/26 08:03:01;;;;;;;8.32;6.22;;;;;;;8.56;49.88;100269.34;5051545;28;20025;-79
2022/11/26 08:05:26;;;;;;;8.73;7.00;;;;;;;8.51;50.02;100258.44;5051568;28;20025;-79
2022/11/26 08:07:52;;;;;;;7.93;6.93;;;;;;;9.00;49.60;100322.19;5051370;28;20045;-79
2022/11/26 08:10:17;;;;;;;6.25;5.10;;;;;;;8.94;49.25;100300.88;5051446;28;20037;-79
2022/11/26 08:12:43;;;;;;;8.82;5.85;;;;;;;9.11;49.49;100337.78;5051445;28;20491;-80
2022/11/26 08:15:09;;;;;;;8.85;5.70;;;;;;;9.23;49.15;100333.13;5051494;28;20490;-79
2022/11/26 08:17:34;;;;;;;7.20;4.88;;;;;;;9.02;49.02;100319.41;5052076;28;20112;-79
2022/11/26 08:19:59;;;;;;;7.00;5.38;;;;;;;8.69;48.76;100233.94;5033641;28;20028;-79
2022/11/26 08:22:25;;;;;;;5.72;5.13;;;;;;;9.56;48.68;100386.97;5051577;28;20040;-79
2022/11/26 08:24:50;;;;;;;8.00;4.93;;;;;;;8.92;48.38;100264.16;5051754;28;20021;-79
2022/11/26 08:27:16;;;;;;;10.60;6.35;;;;;;;9.46;48.61;100347.50;5051697;28;20414;-79
2022/11/26 08:29:41;;;;;;;8.30;5.93;;;;;;;9.77;48.87;100379.59;5049380;28;20063;-79
2022/11/26 08:32:06;;;;;;;6.22;5.45;;;;;;;9.41;48.76;100307.59;5051426;28;20052;-79
2022/11/26 08:34:32;;;;;;;7.25;5.65;;;;;;;9.56;48.99;100321.06;5051312;28;20101;-79
2022/11/26 08:36:58;;;;;;;8.18;5.75;;;;;;;9.38;49.27;100310.53;5051965;28;20029;-80
2022/11/26 08:39:23;;;;;;;7.50;6.20;;;;;;;9.42;48.78;100288.16;5051599;28;20044;-79
2022/11/26 08:41:49;;;;;;;6.68;5.70;;;;;;;9.59;48.34;100323.38;5051322;28;20033;-79
2022/11/26 08:44:14;;;;;;;7.75;6.53;;;;;;;9.60;48.89;100300.47;5051178;28;20021;-80
2022/11/26 08:46:40;;;;;;;8.05;7.13;;;;;;;10.09;48.23;100365.00;5051246;28;20051;-79
2022/11/26 08:49:09;;;;;;;9.45;7.10;;;;;;;10.14;48.99;100378.53;5051453;28;20404;-80
2022/11/26 08:51:34;;;;;;;8.55;6.75;;;;;;;9.87;48.68;100330.22;5050852;28;20129;-80
2022/11/26 08:54:00;;;;;;;8.30;6.80;;;;;;;10.24;48.45;100384.59;5051114;28;20029;-79
2022/11/26 08:56:26;;;;;;;8.18;5.75;;;;;;;10.26;48.29;100387.06;5033354;28;20024;-80
2022/11/26 08:58:52;;;;;;;7.60;5.70;;;;;;;9.70;48.08;100303.88;5051494;28;20032;-79
2022/11/26 09:01:18;;;;;;;7.97;6.28;;;;;;;9.87;48.48;100318.84;5051562;28;20059;-79
2022/11/26 09:03:47;;;;;;;7.13;5.75;;;;;;;10.32;48.02;100397.81;5052224;28;20028;-79
2022/11/26 09:06:12;;;;;;;8.40;6.22;;;;;;;9.74;47.59;100294.69;5065937;28;20060;-79
2022/11/26 09:11:24;;;;;;;10.05;6.25;;;;;;;10.06;47.93;100331.00;5051903;28;20116;-79
2022/11/26 09:13:49;;;;;;;7.38;5.78;;;;;;;9.94;47.17;100311.97;5051874;28;20568;-80
2022/11/26 09:16:14;;;;;;;6.05;5.45;;;;;;;10.02;46.79;100309.38;5051372;28;20116;-80
2022/11/26 09:18:40;;;;;;;7.88;6.22;;;;;;;10.24;46.84;100338.88;5051224;28;20029;-79
2022/11/26 09:21:05;;;;;;;8.77;6.28;;;;;;;9.87;46.97;100261.63;5051207;28;20489;-79
2022/11/26 09:23:31;;;;;;;6.85;6.15;;;;;;;10.51;47.06;100370.41;5051329;28;20025;-79
2022/11/26 09:25:56;;;;;;;7.68;5.65;;;;;;;10.80;46.44;100380.59;5051254;28;20059;-79
2022/11/26 09:28:21;;;;;;;6.50;5.43;;;;;;;10.83;46.00;100406.72;5069267;28;20027;-79
2022/11/26 09:30:48;;;;;;;6.18;5.20;;;;;;;10.87;46.52;100408.03;5054934;28;20108;-79
2022/11/26 09:33:13;;;;;;;8.30;6.28;;;;;;;9.75;46.07;100230.41;5050850;28;20405;-79
2022/11/26 09:35:39;;;;;;;9.80;6.47;;;;;;;10.82;46.22;100358.34;5051169;28;20029;-79
2022/11/26 09:38:04;;;;;;;7.80;6.13;;;;;;;10.71;45.92;100315.53;5032800;28;20017;-79
2022/11/26 09:40:54;;;;;;;7.43;6.45;;;;;;;10.98;46.00;100351.44;5052583;28;20047;-79
2022/11/26 09:43:28;;;;;;;9.32;7.13;;;;;;;10.68;45.47;100277.06;5054356;28;20057;-79
2022/11/26 09:45:58;;;;;;;6.50;5.50;;;;;;;11.39;45.64;100390.22;5054369;28;20033;-79
2022/11/26 09:48:25;;;;;;;5.53;4.70;;;;;;;11.05;45.09;100332.13;5053030;28;20031;-79
2022/11/26 09:50:58;;;;;;;6.88;5.20;;;;;;;10.68;44.54;100223.41;5052824;28;20032;-79
2022/11/26 09:53:29;;;;;;;8.00;6.55;;;;;;;10.72;44.85;100208.91;5052820;28;20417;-79
2022/11/26 09:55:55;;;;;;;7.68;5.85;;;;;;;11.55;45.10;100335.69;5031876;28;20045;-80
2022/11/26 09:58:37;;;;;;;6.10;5.50;;;;;;;11.45;44.22;100317.34;5034033;28;20032;-79
2022/11/26 10:01:04;;;;;;;6.95;5.72;;;;;;;11.78;44.55;100357.88;5034178;28;20083;-79
2022/11/26 10:03:36;;;;;;;10.63;5.68;;;;;;;11.39;44.68;100294.22;5034470;28;20565;-79
2022/11/26 10:06:01;;;;;;;6.85;6.15;;;;;;;11.83;44.90;100362.69;5034549;28;20025;-79
2022/11/26 10:08:42;;;;;;;6.03;5.43;;;;;;;11.36;44.14;100328.91;5034198;28;20487;-79
2022/11/26 10:11:28;;;;;;;9.65;5.68;;;;;;;11.04;44.51;100235.34;5034451;28;20033;-79
2022/11/26 10:14:41;;;;;;;6.88;5.95;;;;;;;11.83;43.55;100349.44;5034669;28;20100;-79
2022/11/26 10:17:31;;;;;;;6.82;5.55;;;;;;;11.80;43.65;100355.91;5012268;28;20113;-79
2022/11/26 10:20:22;;;;;;;7.38;5.55;;;;;;;11.57;43.76;100309.91;5012250;28;20045;-79
2022/11/26 10:22:51;;;;;;;8.82;5.57;;;;;;;11.94;43.81;100355.25;5040875;28;20037;-79
2022/11/26 10:25:19;;;;;;;7.93;5.72;;;;;;;11.93;43.54;100344.84;5049054;28;20112;-79
2022/11/26 10:27:47;;;;;;;9.57;6.25;;;;;;;11.79;43.34;100325.16;5033683;28;20082;-79
2022/11/26 10:30:21;;;;;;;7.20;5.30;;;;;;;11.23;42.66;100234.25;5033236;28;20029;-79
2022/11/26 10:32:48;;;;;;;6.63;5.25;;;;;;;11.09;43.05;100205.78;5033252;28;20099;-79
2022/11/26 10:35:17;;;;;;;6.82;5.25;;;;;;;11.64;42.96;100310.91;5033437;28;20044;-79
2022/11/26 10:37:43;;;;;;;7.30;5.15;;;;;;;11.97;42.91;100346.16;5033529;28;20029;-79
2022/11/26 10:40:23;;;;;;;7.40;5.43;;;;;;;11.98;42.39;100340.69;5048668;28;20034;-79
2022/11/26 10:43:20;;;;;;;6.18;5.30;;;;;;;11.94;42.86;100347.31;5033337;28;20122;-79
2022/11/26 10:45:49;;;;;;;5.00;4.50;;;;;;;11.97;42.85;100341.69;5031289;28;20125;-79
2022/11/26 10:48:18;;;;;;;6.35;4.88;;;;;;;11.68;42.40;100302.47;5031907;28;20033;-79
2022/11/26 10:51:05;;;;;;;6.10;4.88;;;;;;;11.62;41.98;100289.91;5047943;28;20080;-79
2022/11/26 10:54:12;;;;;;;6.70;5.07;;;;;;;11.99;42.37;100333.59;5032955;28;20033;-79
2022/11/26 10:56:44;;;;;;;6.85;5.22;;;;;;;11.97;42.95;100339.03;5024711;28;20048;-80
2022/11/26 10:59:39;;;;;;;7.10;5.47;;;;;;;11.69;42.54;100287.44;5032073;28;20095;-79
2022/11/26 11:02:19;;;;;;;5.30;4.80;;;;;;;11.55;42.53;100264.28;5033057;28;20204;-81
2022/11/26 11:04:49;;;;;;;4.55;3.80;;;;;;;11.81;42.62;100286.13;5048861;28;20021;-79
2022/11/26 11:07:33;;;;;;;6.78;4.38;;;;;;;12.04;42.18;100326.78;5033915;28;20029;-79
2022/11/26 11:10:12;;;;;;;5.40;4.40;;;;;;;11.37;42.32;100215.06;5048441;28;20048;-79
2022/11/26 11:12:39;;;;;;;6.38;4.53;;;;;;;11.96;42.29;100303.00;5033340;28;20040;-80
2022/11/26 11:15:32;;;;;;;6.03;3.72;;;;;;;11.95;41.43;100293.41;5032870;28;20051;-79
2022/11/26 11:18:02;;;;;;;6.40;4.28;;;;;;;12.08;41.81;100316.69;5030361;28;20037;-79
2022/11/26 11:20:33;;;;;;;4.13;3.72;;;;;;;11.52;41.81;100201.16;5031348;28;20112;-80
2022/11/26 11:23:03;;;;;;;6.10;4.68;;;;;;;11.38;41.68;100195.56;5032501;28;20026;-79
2022/11/26 11:25:33;;;;;;;6.13;4.47;;;;;;;11.43;41.70;100198.53;5032610;28;20037;-79
2022/11/26 11:28:15;;;;;;;5.30;4.25;;;;;;;12.18;41.53;100309.38;5032350;28;20469;-79
2022/11/26 11:30:43;;;;;;;4.60;4.10;;;;;;;12.20;41.80;100323.28;5032615;28;20036;-79
2022/11/26 11:33:24;;;;;;;5.10;4.10;;;;;;;11.82;41.33;100258.66;5031459;28;20414;-79